createdAt,value
2017-09-29T00:02:21.030Z,101712.71
2017-09-29T00:04:49.345Z,101711.30
2017-09-29T00:07:17.663Z,101709.42
2017-09-29T00:09:45.999Z,101704.84
2017-09-29T00:12:14.327Z,101706.30
2017-09-29T00:14:42.670Z,101700.25
2017-09-29T00:17:11.755Z,101702.98
2017-09-29T00:19:40.084Z,101700.30
2017-09-29T00:22:08.406Z,101702.08
2017-09-29T00:24:36.720Z,101704.91
2017-09-29T00:27:05.282Z,101697.13
2017-09-29T00:29:34.355Z,101692.67
2017-09-29T00:32:02.673Z,101691.49
2017-09-29T00:34:31.759Z,101690.84
2017-09-29T00:37:00.832Z,101685.98
2017-09-29T00:39:29.162Z,101690.75
2017-09-29T00:41:57.477Z,101686.45
2017-09-29T00:44:25.798Z,101687.57
2017-09-29T00:46:54.117Z,101683.53
2017-09-29T00:49:22.449Z,101678.62
2017-09-29T00:51:51.586Z,101679.17
2017-09-29T00:54:19.890Z,101661.86
2017-09-29T00:56:48.199Z,101681.02
2017-09-29T00:59:17.321Z,101679.34
2017-09-29T01:01:45.633Z,101674.05
2017-09-29T01:04:13.967Z,101674.80
2017-09-29T01:06:42.295Z,101674.19
2017-09-29T01:09:10.630Z,101668.25
2017-09-29T01:11:38.965Z,101671.94
2017-09-29T01:14:08.076Z,101665.17
2017-09-29T01:16:37.190Z,101670.16
2017-09-29T01:19:05.501Z,101672.14
2017-09-29T01:21:33.811Z,101671.16
2017-09-29T01:24:02.127Z,101672.14
2017-09-29T01:26:30.452Z,101668.17
2017-09-29T01:28:58.846Z,101669.59
2017-09-29T01:31:27.932Z,101666.66
2017-09-29T01:33:56.239Z,101669.52
2017-09-29T01:36:24.578Z,101661.42
2017-09-29T01:38:52.885Z,101670.94
2017-09-29T01:41:22.021Z,101676.51
2017-09-29T01:43:50.344Z,101670.36
2017-09-29T01:46:18.672Z,101666.16
2017-09-29T01:48:47.016Z,101674.03
2017-09-29T01:51:16.106Z,101669.38
2017-09-29T01:53:45.221Z,101666.16
2017-09-29T01:56:13.533Z,101665.94
2017-09-29T01:58:41.855Z,101668.91
2017-09-29T02:01:10.955Z,101674.84
2017-09-29T02:03:40.039Z,101662.75
2017-09-29T02:06:09.148Z,101662.78
2017-09-29T02:08:38.236Z,101662.06
2017-09-29T02:11:07.334Z,101659.06
2017-09-29T02:13:36.461Z,101653.64
2017-09-29T02:16:04.762Z,101657.52
2017-09-29T02:18:33.110Z,101665.52
2017-09-29T02:21:01.417Z,101663.77
2017-09-29T02:23:29.735Z,101658.81
2017-09-29T02:25:58.869Z,101656.87
2017-09-29T02:28:27.178Z,101656.42
2017-09-29T02:30:55.522Z,101647.52
2017-09-29T02:33:23.830Z,101649.09
2017-09-29T02:35:52.138Z,101651.63
2017-09-29T02:38:21.234Z,101646.08
2017-09-29T02:40:50.310Z,101641.05
2017-09-29T02:43:18.646Z,101641.11
2017-09-29T02:45:46.951Z,101641.42
2017-09-29T02:48:15.258Z,101636.36
2017-09-29T02:50:43.571Z,101638.62
2017-09-29T02:53:11.881Z,101633.70
2017-09-29T02:55:40.231Z,101633.42
2017-09-29T02:58:11.137Z,101634.50
2017-09-29T03:00:42.045Z,101635.06
2017-09-29T03:03:13.678Z,101638.33
2017-09-29T03:05:44.369Z,101631.50
2017-09-29T03:08:13.475Z,101636.38
2017-09-29T03:10:41.784Z,101634.82
2017-09-29T03:13:10.103Z,101631.42
2017-09-29T03:15:38.408Z,101630.02
2017-09-29T03:18:06.755Z,101625.84
2017-09-29T03:20:35.065Z,101634.11
2017-09-29T03:23:03.376Z,101637.06
2017-09-29T03:25:31.701Z,101628.33
2017-09-29T03:28:00.769Z,101630.52
2017-09-29T03:30:29.106Z,101630.02
2017-09-29T03:32:57.421Z,101629.64
2017-09-29T03:35:25.729Z,101630.09
2017-09-29T03:37:54.818Z,101629.23
2017-09-29T03:40:23.902Z,101628.84
2017-09-29T03:42:52.249Z,101620.46
2017-09-29T03:45:20.558Z,101623.67
2017-09-29T03:47:48.869Z,101626.06
2017-09-29T03:50:19.395Z,101616.45
2017-09-29T03:52:49.253Z,101619.27
2017-09-29T03:55:20.538Z,101621.41
2017-09-29T03:57:51.306Z,101620.37
2017-09-29T04:00:19.631Z,101611.23
2017-09-29T04:02:47.935Z,101619.90
2017-09-29T04:05:17.042Z,101620.77
2017-09-29T04:07:45.421Z,101616.84
2017-09-29T04:10:14.484Z,101612.05
2017-09-29T04:12:42.801Z,101611.16
2017-09-29T04:15:11.107Z,101615.63
2017-09-29T04:17:39.446Z,101614.24
2017-09-29T04:20:07.769Z,101618.83
2017-09-29T04:22:36.084Z,101613.08
2017-09-29T04:25:05.194Z,101607.20
2017-09-29T04:27:33.513Z,101616.05
2017-09-29T04:30:01.889Z,101613.67
2017-09-29T04:32:30.202Z,101609.56
2017-09-29T04:34:58.534Z,101607.66
2017-09-29T04:37:26.865Z,101612.62
2017-09-29T04:39:55.945Z,101610.56
2017-09-29T04:42:24.364Z,101606.45
2017-09-29T04:44:52.677Z,101608.30
2017-09-29T04:47:21.019Z,101605.86
2017-09-29T04:49:49.401Z,101608.72
2017-09-29T04:52:17.730Z,101602.96
2017-09-29T04:54:46.115Z,101595.48
2017-09-29T04:57:14.430Z,101602.61
2017-09-29T04:59:42.762Z,101603.98
2017-09-29T05:02:11.074Z,101608.11
2017-09-29T05:04:40.197Z,101608.30
2017-09-29T05:07:08.542Z,101608.78
2017-09-29T05:09:37.616Z,101601.66
2017-09-29T05:12:05.914Z,101601.14
2017-09-29T05:14:34.986Z,101607.28
2017-09-29T05:17:03.290Z,101607.29
2017-09-29T05:19:32.394Z,101613.11
2017-09-29T05:22:01.471Z,101619.05
2017-09-29T05:24:30.550Z,101614.67
2017-09-29T05:26:58.865Z,101614.73
2017-09-29T05:29:27.169Z,101614.73
2017-09-29T05:31:55.505Z,101614.61
2017-09-29T05:34:24.569Z,101616.67
2017-09-29T05:36:52.874Z,101619.31
2017-09-29T05:39:22.004Z,101613.11
2017-09-29T05:41:50.310Z,101612.51
2017-09-29T05:44:18.641Z,101613.27
2017-09-29T05:46:46.948Z,101616.06
2017-09-29T05:49:15.253Z,101615.64
2017-09-29T05:51:43.673Z,101621.39
2017-09-29T05:54:11.981Z,101621.10
2017-09-29T05:56:40.339Z,101615.83
2017-09-29T05:59:08.644Z,101614.03
2017-09-29T06:01:36.957Z,101613.95
2017-09-29T06:04:05.269Z,101608.66
2017-09-29T06:06:33.589Z,101608.44
2017-09-29T06:09:01.953Z,101603.59
2017-09-29T06:11:30.267Z,101607.75
2017-09-29T06:13:58.586Z,101609.63
2017-09-29T06:16:26.901Z,101608.56
2017-09-29T06:18:55.210Z,101609.67
2017-09-29T06:21:24.305Z,101619.80
2017-09-29T06:23:53.381Z,101619.99
2017-09-29T06:26:21.685Z,101619.92
2017-09-29T06:28:50.765Z,101619.07
2017-09-29T06:31:19.078Z,101623.64
2017-09-29T06:33:47.420Z,101628.63
2017-09-29T06:36:15.730Z,101629.66
2017-09-29T06:38:44.038Z,101632.60
2017-09-29T06:41:12.350Z,101627.88
2017-09-29T06:43:40.662Z,101632.27
2017-09-29T06:46:08.991Z,101637.63
2017-09-29T06:48:37.295Z,101635.97
2017-09-29T06:51:06.365Z,101637.13
2017-09-29T06:53:34.690Z,101643.56
2017-09-29T06:56:02.999Z,101644.17
2017-09-29T06:58:31.334Z,101655.27
2017-09-29T07:00:59.644Z,101643.99
2017-09-29T07:03:27.954Z,101652.52
2017-09-29T07:05:56.274Z,101648.64
2017-09-29T07:08:24.582Z,101646.87
2017-09-29T07:10:52.922Z,101646.82
2017-09-29T07:13:21.243Z,101649.79
2017-09-29T07:15:49.545Z,101653.13
2017-09-29T07:18:17.857Z,101649.86
2017-09-29T07:20:46.166Z,101651.17
2017-09-29T07:23:15.280Z,101646.69
2017-09-29T07:25:43.918Z,101649.80
2017-09-29T07:28:13.641Z,101647.78
2017-09-29T07:30:42.417Z,101650.05
2017-09-29T07:33:10.721Z,101644.92
2017-09-29T07:35:39.060Z,101640.59
2017-09-29T07:38:08.133Z,101651.16
2017-09-29T07:40:36.437Z,101645.03
2017-09-29T07:43:04.756Z,101645.36
2017-09-29T07:45:33.065Z,101644.70
2017-09-29T07:48:01.407Z,101641.48
2017-09-29T07:50:29.731Z,101644.30
2017-09-29T07:52:58.805Z,101639.23
2017-09-29T07:55:27.131Z,101633.45
2017-09-29T07:57:55.438Z,101634.53
2017-09-29T08:00:23.770Z,101638.41
2017-09-29T08:02:52.082Z,101641.84
2017-09-29T08:05:20.389Z,101635.61
2017-09-29T08:07:48.701Z,101636.03
2017-09-29T08:10:17.769Z,101635.69
2017-09-29T08:12:46.105Z,101641.71
2017-09-29T08:15:14.414Z,101631.27
2017-09-29T08:17:42.729Z,101637.22
2017-09-29T08:20:11.040Z,101628.68
2017-09-29T08:22:39.342Z,101625.78
2017-09-29T08:25:07.689Z,101626.33
2017-09-29T08:27:35.999Z,101629.42
2017-09-29T08:30:04.301Z,101628.80
2017-09-29T08:32:33.395Z,101629.09
2017-09-29T08:35:02.486Z,101623.70
2017-09-29T08:37:31.601Z,101623.36
2017-09-29T08:39:59.906Z,101622.05
2017-09-29T08:42:28.218Z,101620.37
2017-09-29T08:44:56.533Z,101613.91
2017-09-29T08:47:25.609Z,101619.64
2017-09-29T08:49:53.945Z,101620.09
2017-09-29T08:52:22.250Z,101612.84
2017-09-29T08:54:50.549Z,101621.92
2017-09-29T08:57:19.635Z,101617.33
2017-09-29T08:59:48.709Z,101618.23
2017-09-29T09:02:17.056Z,101618.01
2017-09-29T09:04:45.365Z,101615.66
2017-09-29T09:07:13.694Z,101615.10
2017-09-29T09:09:42.005Z,101613.41
2017-09-29T09:12:10.378Z,101613.98
2017-09-29T09:14:39.050Z,101608.09
2017-09-29T09:17:08.193Z,101613.74
2017-09-29T09:19:36.501Z,101612.75
2017-09-29T09:22:04.814Z,101613.16
2017-09-29T09:24:33.116Z,101617.47
2017-09-29T09:27:01.450Z,101609.57
2017-09-29T09:29:29.759Z,101604.53
2017-09-29T09:31:58.061Z,101603.75
2017-09-29T09:34:27.160Z,101598.33
2017-09-29T09:36:56.255Z,101603.01
2017-09-29T09:39:24.598Z,101603.09
2017-09-29T09:41:52.893Z,101598.84
2017-09-29T09:44:21.233Z,101595.08
2017-09-29T09:46:49.545Z,101583.36
2017-09-29T09:49:17.861Z,101591.08
2017-09-29T09:51:46.956Z,101583.20
2017-09-29T09:54:16.025Z,101583.13
2017-09-29T09:56:44.351Z,101578.16
2017-09-29T09:59:12.661Z,101580.88
2017-09-29T10:01:40.993Z,101573.22
2017-09-29T10:04:09.322Z,101567.62
2017-09-29T10:06:37.630Z,101576.89
2017-09-29T10:09:06.702Z,101579.07
2017-09-29T10:11:35.021Z,101563.45
2017-09-29T10:14:03.322Z,101568.01
2017-09-29T10:16:31.681Z,101567.01
2017-09-29T10:18:59.976Z,101564.58
2017-09-29T10:21:28.277Z,101562.30
2017-09-29T10:23:57.358Z,101556.55
2017-09-29T10:26:25.660Z,101567.88
2017-09-29T10:28:54.002Z,101558.13
2017-09-29T10:31:22.318Z,101553.78
2017-09-29T10:33:51.411Z,101551.88
2017-09-29T10:36:19.732Z,101554.69
2017-09-29T10:38:48.050Z,101551.69
2017-09-29T10:41:16.386Z,101547.83
2017-09-29T10:43:44.680Z,101542.73
2017-09-29T10:46:12.980Z,101549.23
2017-09-29T10:48:41.289Z,101547.08
2017-09-29T10:51:10.360Z,101537.56
2017-09-29T10:53:38.702Z,101539.52
2017-09-29T10:56:07.005Z,101545.61
2017-09-29T10:58:35.358Z,101539.59
2017-09-29T11:01:03.672Z,101544.65
2017-09-29T11:03:31.981Z,101539.52
2017-09-29T11:06:01.093Z,101535.06
2017-09-29T11:08:29.430Z,101531.14
2017-09-29T11:10:57.739Z,101524.12
2017-09-29T11:13:26.821Z,101526.05
2017-09-29T11:15:55.896Z,101523.66
2017-09-29T11:18:24.234Z,101520.15
2017-09-29T11:20:52.533Z,101515.02
2017-09-29T11:23:20.838Z,101510.38
2017-09-29T11:25:49.156Z,101515.06
2017-09-29T11:28:17.473Z,101510.70
2017-09-29T11:30:45.819Z,101513.34
2017-09-29T11:33:14.130Z,101504.21
2017-09-29T11:35:42.453Z,101505.19
2017-09-29T11:38:10.769Z,101502.02
2017-09-29T11:40:39.078Z,101501.89
2017-09-29T11:43:07.415Z,101500.28
2017-09-29T11:45:35.714Z,101488.77
2017-09-29T11:48:04.022Z,101492.79
2017-09-29T11:50:33.098Z,101492.88
2017-09-29T11:53:01.410Z,101495.48
2017-09-29T11:55:29.754Z,101486.61
2017-09-29T11:57:58.069Z,101481.31
2017-09-29T12:00:26.375Z,101484.22
2017-09-29T12:02:54.689Z,101480.13
2017-09-29T12:05:22.993Z,101482.39
2017-09-29T12:07:52.097Z,101482.31
2017-09-29T12:10:20.405Z,101479.81
2017-09-29T12:12:48.710Z,101476.78
2017-09-29T12:15:17.032Z,101478.39
2017-09-29T12:17:45.334Z,101470.93
2017-09-29T12:20:13.674Z,101473.66
2017-09-29T12:22:42.740Z,101464.70
2017-09-29T12:25:11.060Z,101464.37
2017-09-29T12:27:39.389Z,101465.39
2017-09-29T12:30:07.729Z,101470.30
2017-09-29T12:32:36.082Z,101469.50
2017-09-29T12:35:05.161Z,101467.41
2017-09-29T12:37:34.237Z,101469.34
2017-09-29T12:40:02.553Z,101464.37
2017-09-29T12:42:30.867Z,101460.82
2017-09-29T12:44:59.223Z,101462.84
2017-09-29T12:47:27.531Z,101458.83
2017-09-29T12:49:55.854Z,101455.59
2017-09-29T12:52:24.939Z,101446.73
2017-09-29T12:54:53.253Z,101449.55
2017-09-29T12:57:21.590Z,101445.55
2017-09-29T12:59:49.913Z,101449.67
2017-09-29T13:02:18.234Z,101451.28
2017-09-29T13:04:46.557Z,101448.61
2017-09-29T13:07:14.866Z,101450.74
2017-09-29T13:09:43.970Z,101443.95
2017-09-29T13:12:12.282Z,101444.09
2017-09-29T13:14:41.349Z,101442.77
2017-09-29T13:17:09.660Z,101435.51
2017-09-29T13:19:38.733Z,101429.39
2017-09-29T13:22:07.067Z,101428.50
2017-09-29T13:24:35.405Z,101432.31
2017-09-29T13:27:04.478Z,101422.25
2017-09-29T13:29:32.794Z,101419.03
2017-09-29T13:32:01.096Z,101422.30
2017-09-29T13:34:29.445Z,101428.30
2017-09-29T13:36:57.756Z,101423.09
2017-09-29T13:39:26.068Z,101417.61
2017-09-29T13:41:54.377Z,101421.31
2017-09-29T13:44:22.687Z,101416.25
2017-09-29T13:46:51.020Z,101415.91
2017-09-29T13:49:20.354Z,101414.85
2017-09-29T13:51:48.669Z,101410.54
2017-09-29T13:54:18.493Z,101410.99
2017-09-29T13:56:46.799Z,101405.98
2017-09-29T13:59:15.148Z,101409.59
2017-09-29T14:01:43.472Z,101407.27
2017-09-29T14:04:11.777Z,101401.89
2017-09-29T14:06:40.090Z,101392.14
2017-09-29T14:09:09.167Z,101397.87
2017-09-29T14:11:37.502Z,101392.97
2017-09-29T14:14:05.805Z,101387.47
2017-09-29T14:16:34.105Z,101400.67
2017-09-29T14:19:02.422Z,101400.33
2017-09-29T14:21:30.732Z,101398.58
2017-09-29T14:23:59.065Z,101399.54
2017-09-29T14:26:28.129Z,101397.47
2017-09-29T14:28:56.440Z,101391.09
2017-09-29T14:31:24.752Z,101386.53
2017-09-29T14:33:53.843Z,101378.09
2017-09-29T14:36:22.173Z,101381.17
2017-09-29T14:38:51.242Z,101383.52
2017-09-29T14:41:19.548Z,101382.50
2017-09-29T14:43:48.632Z,101376.94
2017-09-29T14:46:16.942Z,101381.60
2017-09-29T14:48:45.278Z,101375.30
2017-09-29T14:51:13.582Z,101379.73
2017-09-29T14:53:42.681Z,101378.72
2017-09-29T14:56:11.009Z,101376.63
2017-09-29T14:58:39.311Z,101375.03
2017-09-29T15:01:07.649Z,101373.78
2017-09-29T15:03:35.965Z,101368.64
2017-09-29T15:06:04.269Z,101373.08
2017-09-29T15:08:33.348Z,101371.06
2017-09-29T15:11:02.432Z,101371.98
2017-09-29T15:13:30.812Z,101367.73
2017-09-29T15:15:59.105Z,101375.52
2017-09-29T15:18:28.169Z,101366.38
2017-09-29T15:20:56.492Z,101366.83
2017-09-29T15:23:24.802Z,101360.10
2017-09-29T15:25:53.142Z,101368.35
2017-09-29T15:28:21.461Z,101360.94
2017-09-29T15:30:49.759Z,101367.08
2017-09-29T15:33:18.065Z,101365.01
2017-09-29T15:35:47.141Z,101365.12
2017-09-29T15:38:15.468Z,101369.28
2017-09-29T15:40:43.776Z,101358.09
2017-09-29T15:43:12.077Z,101359.56
2017-09-29T15:45:40.395Z,101355.81
2017-09-29T15:48:08.704Z,101355.85
2017-09-29T15:50:37.044Z,101360.99
2017-09-29T15:53:05.349Z,101368.17
2017-09-29T15:55:34.416Z,101365.70
2017-09-29T15:58:02.731Z,101363.34
2017-09-29T16:00:31.046Z,101369.22
2017-09-29T16:03:00.153Z,101365.39
2017-09-29T16:05:29.220Z,101369.34
2017-09-29T16:07:57.525Z,101368.67
2017-09-29T16:10:26.609Z,101367.94
2017-09-29T16:12:55.992Z,101373.55
2017-09-29T16:15:24.334Z,101371.13
2017-09-29T16:17:52.632Z,101375.61
2017-09-29T16:20:20.940Z,101373.52
2017-09-29T16:22:50.033Z,101381.94
2017-09-29T16:25:18.334Z,101382.98
2017-09-29T16:27:46.675Z,101382.90
2017-09-29T16:30:14.981Z,101384.64
2017-09-29T16:32:44.061Z,101382.95
2017-09-29T16:35:13.145Z,101384.50
2017-09-29T16:37:41.474Z,101395.75
2017-09-29T16:40:09.822Z,101391.84
2017-09-29T16:42:38.948Z,101387.89
2017-09-29T16:45:07.284Z,101402.17
2017-09-29T16:47:35.597Z,101400.84
2017-09-29T16:50:03.919Z,101396.77
2017-09-29T16:52:32.242Z,101403.32
2017-09-29T16:55:00.582Z,101400.88
2017-09-29T16:57:28.910Z,101405.61
2017-09-29T16:59:57.233Z,101400.39
2017-09-29T17:02:25.573Z,101400.97
2017-09-29T17:04:53.890Z,101400.70
2017-09-29T17:07:22.197Z,101399.52
2017-09-29T17:09:51.272Z,101404.06
2017-09-29T17:12:19.578Z,101402.56
2017-09-29T17:14:47.896Z,101398.98
2017-09-29T17:17:16.193Z,101398.86
2017-09-29T17:19:44.508Z,101396.10
2017-09-29T17:22:12.812Z,101396.66
2017-09-29T17:24:41.133Z,101393.63
2017-09-29T17:27:09.438Z,101395.14
2017-09-29T17:29:37.789Z,101393.20
2017-09-29T17:32:06.128Z,101394.19
2017-09-29T17:34:34.430Z,101393.91
2017-09-29T17:37:02.747Z,101388.26
2017-09-29T17:39:31.082Z,101394.72
2017-09-29T17:41:59.433Z,101397.08
2017-09-29T17:44:27.742Z,101395.01
2017-09-29T17:46:56.056Z,101394.28
2017-09-29T17:49:24.377Z,101397.20
2017-09-29T17:51:52.689Z,101392.91
2017-09-29T17:54:21.006Z,101394.41
2017-09-29T17:56:49.321Z,101393.72
2017-09-29T17:59:17.637Z,101393.02
2017-09-29T18:01:46.720Z,101386.27
2017-09-29T18:04:15.042Z,101383.79
2017-09-29T18:06:43.345Z,101391.94
2017-09-29T18:09:11.677Z,101388.20
2017-09-29T18:11:39.984Z,101390.80
2017-09-29T18:14:08.296Z,101386.12
2017-09-29T18:16:36.625Z,101387.62
2017-09-29T18:19:04.937Z,101390.92
2017-09-29T18:21:34.066Z,101399.69
2017-09-29T18:24:03.136Z,101386.48
2017-09-29T18:26:31.481Z,101388.38
2017-09-29T18:28:59.789Z,101395.10
2017-09-29T18:31:28.102Z,101398.53
2017-09-29T18:33:56.443Z,101394.84
2017-09-29T18:36:24.750Z,101394.66
2017-09-29T18:38:53.830Z,101389.06
2017-09-29T18:41:34.638Z,101391.54
2017-09-29T18:47:07.793Z,101385.30
2017-09-29T18:49:36.110Z,101384.25
2017-09-29T18:52:05.203Z,101386.23
2017-09-29T18:54:34.303Z,101390.41
2017-09-29T18:57:02.609Z,101381.14
2017-09-29T18:59:30.921Z,101376.14
2017-09-29T19:01:59.233Z,101380.68
2017-09-29T19:04:27.567Z,101382.48
2017-09-29T19:06:55.903Z,101379.66
2017-09-29T19:09:24.210Z,101384.30
2017-09-29T19:11:52.525Z,101377.56
2017-09-29T19:14:21.600Z,101384.83
2017-09-29T19:16:49.937Z,101381.66
2017-09-29T19:19:18.242Z,101374.62
2017-09-29T19:21:46.572Z,101377.20
2017-09-29T19:24:14.901Z,101376.95
2017-09-29T19:26:43.218Z,101370.05
2017-09-29T19:29:12.309Z,101367.56
2017-09-29T19:31:40.639Z,101369.58
2017-09-29T19:34:08.964Z,101362.69
2017-09-29T19:36:38.029Z,101365.56
2017-09-29T19:39:06.377Z,101364.25
2017-09-29T19:41:34.724Z,101361.98
2017-09-29T19:44:03.068Z,101358.25
2017-09-29T19:46:31.388Z,101363.05
2017-09-29T19:48:59.700Z,101352.41
2017-09-29T19:51:28.025Z,101352.35
2017-09-29T19:53:57.102Z,101356.86
2017-09-29T19:56:25.430Z,101356.27
2017-09-29T19:58:53.753Z,101352.13
2017-09-29T20:01:22.090Z,101352.92
2017-09-29T20:03:50.394Z,101347.38
2017-09-29T20:06:18.747Z,101344.19
2017-09-29T20:08:47.065Z,101345.95
2017-09-29T20:11:15.379Z,101347.02
2017-09-29T20:13:43.736Z,101341.09
2017-09-29T20:16:12.054Z,101335.02
2017-09-29T20:18:40.368Z,101334.45
2017-09-29T20:21:08.688Z,101331.81
2017-09-29T20:23:37.014Z,101327.06
2017-09-29T20:26:05.317Z,101331.56
2017-09-29T20:28:33.647Z,101335.76
2017-09-29T20:31:01.949Z,101337.79
2017-09-29T20:33:30.280Z,101332.41
2017-09-29T20:35:58.593Z,101328.53
2017-09-29T20:38:26.947Z,101328.84
2017-09-29T20:40:55.269Z,101327.58
2017-09-29T20:43:23.565Z,101331.66
2017-09-29T20:45:51.873Z,101331.25
2017-09-29T20:48:20.185Z,101339.28
2017-09-29T20:50:48.514Z,101332.91
2017-09-29T20:53:16.822Z,101328.34
2017-09-29T20:55:45.142Z,101329.83
2017-09-29T20:58:13.457Z,101322.73
2017-09-29T21:00:41.778Z,101329.56
2017-09-29T21:03:10.117Z,101331.03
2017-09-29T21:05:38.438Z,101335.48
2017-09-29T21:08:06.757Z,101327.33
2017-09-29T21:10:35.834Z,101323.04
2017-09-29T21:13:04.911Z,101320.73
2017-09-29T21:15:33.223Z,101322.34
2017-09-29T21:18:01.565Z,101324.33
2017-09-29T21:20:29.873Z,101318.13
2017-09-29T21:22:58.196Z,101322.23
2017-09-29T21:25:26.501Z,101317.27
2017-09-29T21:27:54.835Z,101319.82
2017-09-29T21:30:23.149Z,101322.90
2017-09-29T21:32:51.477Z,101322.03
2017-09-29T21:35:19.794Z,101328.80
2017-09-29T21:37:48.114Z,101321.05
2017-09-29T21:40:17.208Z,101323.02
2017-09-29T21:42:46.301Z,101324.02
2017-09-29T21:45:15.377Z,101313.53
2017-09-29T21:47:43.735Z,101313.18
2017-09-29T21:50:12.045Z,101311.90
2017-09-29T21:52:41.120Z,101307.75
2017-09-29T21:55:09.441Z,101306.60
2017-09-29T21:57:37.765Z,101302.32
2017-09-29T22:00:06.093Z,101304.65
2017-09-29T22:02:34.417Z,101305.56
2017-09-29T22:05:02.752Z,101307.80
2017-09-29T22:07:31.064Z,101308.20
2017-09-29T22:09:59.390Z,101309.34
2017-09-29T22:12:28.469Z,101311.08
2017-09-29T22:14:56.800Z,101308.24
2017-09-29T22:17:25.108Z,101312.65
2017-09-29T22:19:53.461Z,101306.47
2017-09-29T22:22:21.791Z,101306.73
2017-09-29T22:24:50.865Z,101311.64
2017-09-29T22:27:19.194Z,101314.48
2017-09-29T22:29:47.504Z,101309.50
2017-09-29T22:32:15.832Z,101302.80
2017-09-29T22:34:44.909Z,101302.20
2017-09-29T22:37:14.005Z,101300.61
2017-09-29T22:39:42.329Z,101294.95
2017-09-29T22:42:10.653Z,101300.20
2017-09-29T22:44:38.969Z,101298.75
2017-09-29T22:47:08.010Z,101300.34
2017-09-29T22:49:36.336Z,101291.09
2017-09-29T22:52:04.645Z,101293.64
2017-09-29T22:54:32.956Z,101289.12
2017-09-29T22:57:01.267Z,101291.86
2017-09-29T22:59:29.588Z,101279.38
2017-09-29T23:01:57.898Z,101278.27
2017-09-29T23:04:27.016Z,101269.93
2017-09-29T23:06:55.330Z,101264.95
2017-09-29T23:09:23.657Z,101267.87
2017-09-29T23:11:52.732Z,101262.30
2017-09-29T23:14:21.053Z,101260.47
2017-09-29T23:16:49.365Z,101259.05
2017-09-29T23:19:17.714Z,101253.17
2017-09-29T23:21:46.018Z,101253.53
2017-09-29T23:24:14.368Z,101247.37
2017-09-29T23:26:42.698Z,101247.63
2017-09-29T23:29:11.797Z,101254.34
2017-09-29T23:31:40.120Z,101252.02
2017-09-29T23:34:08.444Z,101248.14
2017-09-29T23:36:36.765Z,101253.47
2017-09-29T23:39:05.073Z,101248.00
2017-09-29T23:41:33.421Z,101246.45
2017-09-29T23:44:01.746Z,101243.30
2017-09-29T23:46:30.065Z,101242.56
2017-09-29T23:48:59.154Z,101235.03
2017-09-29T23:51:28.232Z,101238.64
2017-09-29T23:53:56.564Z,101235.36
2017-09-29T23:56:24.892Z,101237.14
2017-09-29T23:58:53.254Z,101238.71
